sensor_id;sensor_type;location;lat;lon;timestamp;temperature;humidity
7658;DHT22;8462;53.156;8.220;2022-09-09T00:02:19;17.40;88.60
7658;DHT22;8462;53.156;8.220;2022-09-09T00:04:54;17.40;88.70
7658;DHT22;8462;53.156;8.220;2022-09-09T00:07:34;17.40;88.50
7658;DHT22;8462;53.156;8.220;2022-09-09T00:10:13;17.40;88.30
7658;DHT22;8462;53.156;8.220;2022-09-09T00:12:49;17.40;88.30
7658;DHT22;8462;53.156;8.220;2022-09-09T00:15:20;17.40;88.30
7658;DHT22;8462;53.156;8.220;2022-09-09T00:17:51;17.40;88.70
7658;DHT22;8462;53.156;8.220;2022-09-09T00:20:32;17.40;88.60
7658;DHT22;8462;53.156;8.220;2022-09-09T00:23:05;17.40;88.50
7658;DHT22;8462;53.156;8.220;2022-09-09T00:25:40;17.40;88.40
7658;DHT22;8462;53.156;8.220;2022-09-09T00:28:18;17.40;88.70
7658;DHT22;8462;53.156;8.220;2022-09-09T00:30:47;17.40;88.00
7658;DHT22;8462;53.156;8.220;2022-09-09T00:33:17;17.40;88.00
7658;DHT22;8462;53.156;8.220;2022-09-09T00:35:49;17.30;88.10
7658;DHT22;8462;53.156;8.220;2022-09-09T00:38:19;17.30;88.60
7658;DHT22;8462;53.156;8.220;2022-09-09T00:40:52;17.30;88.40
7658;DHT22;8462;53.156;8.220;2022-09-09T00:43:26;17.30;88.80
7658;DHT22;8462;53.156;8.220;2022-09-09T00:46:16;17.30;88.90
7658;DHT22;8462;53.156;8.220;2022-09-09T00:48:57;17.30;89.00
7658;DHT22;8462;53.156;8.220;2022-09-09T00:51:35;17.30;89.20
7658;DHT22;8462;53.156;8.220;2022-09-09T00:54:29;17.40;88.90
7658;DHT22;8462;53.156;8.220;2022-09-09T00:57:06;17.40;88.80
7658;DHT22;8462;53.156;8.220;2022-09-09T00:59:45;17.40;88.30
7658;DHT22;8462;53.156;8.220;2022-09-09T01:02:25;17.30;88.40
7658;DHT22;8462;53.156;8.220;2022-09-09T01:05:02;17.40;88.40
7658;DHT22;8462;53.156;8.220;2022-09-09T01:07:31;17.40;88.00
7658;DHT22;8462;53.156;8.220;2022-09-09T01:10:00;17.30;87.80
7658;DHT22;8462;53.156;8.220;2022-09-09T01:12:38;17.30;88.20
7658;DHT22;8462;53.156;8.220;2022-09-09T01:15:20;17.40;88.90
7658;DHT22;8462;53.156;8.220;2022-09-09T01:17:58;17.40;88.60
7658;DHT22;8462;53.156;8.220;2022-09-09T01:20:31;17.40;88.40
7658;DHT22;8462;53.156;8.220;2022-09-09T01:23:20;17.40;88.10
7658;DHT22;8462;53.156;8.220;2022-09-09T01:26:26;17.40;87.80
7658;DHT22;8462;53.156;8.220;2022-09-09T01:28:55;17.40;87.90
7658;DHT22;8462;53.156;8.220;2022-09-09T01:31:34;17.40;87.60
7658;DHT22;8462;53.156;8.220;2022-09-09T01:34:09;17.30;87.40
7658;DHT22;8462;53.156;8.220;2022-09-09T01:36:42;17.30;87.60
7658;DHT22;8462;53.156;8.220;2022-09-09T01:39:11;17.30;87.40
7658;DHT22;8462;53.156;8.220;2022-09-09T01:41:40;17.30;87.40
7658;DHT22;8462;53.156;8.220;2022-09-09T01:44:11;17.30;88.10
7658;DHT22;8462;53.156;8.220;2022-09-09T01:46:43;17.30;88.20
7658;DHT22;8462;53.156;8.220;2022-09-09T01:49:21;17.30;87.60
7658;DHT22;8462;53.156;8.220;2022-09-09T01:51:50;17.30;87.80
7658;DHT22;8462;53.156;8.220;2022-09-09T01:54:24;17.30;87.70
7658;DHT22;8462;53.156;8.220;2022-09-09T01:57:02;17.30;87.90
7658;DHT22;8462;53.156;8.220;2022-09-09T01:59:45;17.30;87.90
7658;DHT22;8462;53.156;8.220;2022-09-09T02:02:18;17.30;88.20
7658;DHT22;8462;53.156;8.220;2022-09-09T02:05:20;17.40;87.80
7658;DHT22;8462;53.156;8.220;2022-09-09T02:08:03;17.40;87.70
7658;DHT22;8462;53.156;8.220;2022-09-09T02:11:08;17.40;87.70
7658;DHT22;8462;53.156;8.220;2022-09-09T02:14:04;17.40;87.40
7658;DHT22;8462;53.156;8.220;2022-09-09T02:17:26;17.40;87.10
7658;DHT22;8462;53.156;8.220;2022-09-09T02:23:38;17.40;87.00
7658;DHT22;8462;53.156;8.220;2022-09-09T02:26:12;17.30;86.70
7658;DHT22;8462;53.156;8.220;2022-09-09T02:28:46;17.30;86.60
7658;DHT22;8462;53.156;8.220;2022-09-09T02:31:25;17.20;86.70
7658;DHT22;8462;53.156;8.220;2022-09-09T02:34:31;17.20;86.80
7658;DHT22;8462;53.156;8.220;2022-09-09T02:37:01;17.20;87.00
7658;DHT22;8462;53.156;8.220;2022-09-09T02:39:40;17.10;87.10
7658;DHT22;8462;53.156;8.220;2022-09-09T02:42:12;17.10;87.10
7658;DHT22;8462;53.156;8.220;2022-09-09T02:44:42;17.10;87.30
7658;DHT22;8462;53.156;8.220;2022-09-09T02:47:20;17.00;87.30
7658;DHT22;8462;53.156;8.220;2022-09-09T02:49:57;17.00;87.50
7658;DHT22;8462;53.156;8.220;2022-09-09T02:52:34;17.00;88.00
7658;DHT22;8462;53.156;8.220;2022-09-09T02:55:37;17.00;88.10
7658;DHT22;8462;53.156;8.220;2022-09-09T02:58:36;17.10;88.10
7658;DHT22;8462;53.156;8.220;2022-09-09T03:01:05;17.20;87.70
7658;DHT22;8462;53.156;8.220;2022-09-09T03:04:23;17.20;87.50
7658;DHT22;8462;53.156;8.220;2022-09-09T03:07:29;17.20;86.90
7658;DHT22;8462;53.156;8.220;2022-09-09T03:09:58;17.10;86.80
7658;DHT22;8462;53.156;8.220;2022-09-09T03:12:51;17.10;87.10
7658;DHT22;8462;53.156;8.220;2022-09-09T03:15:20;17.10;87.00
7658;DHT22;8462;53.156;8.220;2022-09-09T03:17:58;17.20;87.20
7658;DHT22;8462;53.156;8.220;2022-09-09T03:21:17;17.20;86.90
7658;DHT22;8462;53.156;8.220;2022-09-09T03:23:54;17.20;87.00
7658;DHT22;8462;53.156;8.220;2022-09-09T03:26:23;17.20;87.10
7658;DHT22;8462;53.156;8.220;2022-09-09T03:28:50;17.30;86.80
7658;DHT22;8462;53.156;8.220;2022-09-09T03:31:20;17.30;86.20
7658;DHT22;8462;53.156;8.220;2022-09-09T03:33:47;17.30;86.00
7658;DHT22;8462;53.156;8.220;2022-09-09T03:36:17;17.20;86.10
7658;DHT22;8462;53.156;8.220;2022-09-09T03:38:44;17.30;86.20
7658;DHT22;8462;53.156;8.220;2022-09-09T03:41:12;17.30;85.90
7658;DHT22;8462;53.156;8.220;2022-09-09T03:43:39;17.30;85.70
7658;DHT22;8462;53.156;8.220;2022-09-09T03:46:07;17.20;85.70
7658;DHT22;8462;53.156;8.220;2022-09-09T03:48:34;17.20;85.60
7658;DHT22;8462;53.156;8.220;2022-09-09T03:51:02;17.20;85.50
7658;DHT22;8462;53.156;8.220;2022-09-09T03:53:33;17.20;85.50
7658;DHT22;8462;53.156;8.220;2022-09-09T03:56:07;17.10;85.40
7658;DHT22;8462;53.156;8.220;2022-09-09T03:58:35;17.10;85.60
7658;DHT22;8462;53.156;8.220;2022-09-09T04:01:07;17.10;85.80
7658;DHT22;8462;53.156;8.220;2022-09-09T04:03:36;17.10;86.10
7658;DHT22;8462;53.156;8.220;2022-09-09T04:06:04;17.00;86.20
7658;DHT22;8462;53.156;8.220;2022-09-09T04:08:34;17.10;86.20
7658;DHT22;8462;53.156;8.220;2022-09-09T04:11:02;17.00;86.10
7658;DHT22;8462;53.156;8.220;2022-09-09T04:13:33;17.00;86.30
7658;DHT22;8462;53.156;8.220;2022-09-09T04:16:04;17.10;86.20
7658;DHT22;8462;53.156;8.220;2022-09-09T04:18:41;17.10;86.10
7658;DHT22;8462;53.156;8.220;2022-09-09T04:21:09;17.00;86.00
7658;DHT22;8462;53.156;8.220;2022-09-09T04:23:38;17.00;85.90
7658;DHT22;8462;53.156;8.220;2022-09-09T04:26:07;17.00;86.00
7658;DHT22;8462;53.156;8.220;2022-09-09T04:28:35;16.90;86.00
7658;DHT22;8462;53.156;8.220;2022-09-09T04:31:07;16.80;86.20
7658;DHT22;8462;53.156;8.220;2022-09-09T04:33:38;16.80;86.30
7658;DHT22;8462;53.156;8.220;2022-09-09T04:36:06;16.80;86.00
7658;DHT22;8462;53.156;8.220;2022-09-09T04:38:33;16.80;86.30
7658;DHT22;8462;53.156;8.220;2022-09-09T04:41:02;16.80;86.50
7658;DHT22;8462;53.156;8.220;2022-09-09T04:43:38;16.70;86.40
7658;DHT22;8462;53.156;8.220;2022-09-09T04:46:08;16.70;86.40
7658;DHT22;8462;53.156;8.220;2022-09-09T04:48:36;16.70;86.40
7658;DHT22;8462;53.156;8.220;2022-09-09T04:51:08;16.60;86.60
7658;DHT22;8462;53.156;8.220;2022-09-09T04:53:36;16.60;86.60
7658;DHT22;8462;53.156;8.220;2022-09-09T04:56:07;16.60;86.70
7658;DHT22;8462;53.156;8.220;2022-09-09T04:58:40;16.60;86.80
7658;DHT22;8462;53.156;8.220;2022-09-09T05:01:10;16.60;86.70
7658;DHT22;8462;53.156;8.220;2022-09-09T05:03:46;16.60;86.80
7658;DHT22;8462;53.156;8.220;2022-09-09T05:06:18;16.60;86.80
7658;DHT22;8462;53.156;8.220;2022-09-09T05:08:58;16.60;86.90
7658;DHT22;8462;53.156;8.220;2022-09-09T05:11:31;16.60;86.80
7658;DHT22;8462;53.156;8.220;2022-09-09T05:14:09;16.60;86.80
7658;DHT22;8462;53.156;8.220;2022-09-09T05:16:44;16.60;86.90
7658;DHT22;8462;53.156;8.220;2022-09-09T05:19:12;16.60;87.00
7658;DHT22;8462;53.156;8.220;2022-09-09T05:21:46;16.70;86.90
7658;DHT22;8462;53.156;8.220;2022-09-09T05:24:16;16.70;87.00
7658;DHT22;8462;53.156;8.220;2022-09-09T05:26:47;16.70;87.00
7658;DHT22;8462;53.156;8.220;2022-09-09T05:29:15;16.90;87.20
7658;DHT22;8462;53.156;8.220;2022-09-09T05:31:45;17.10;86.90
7658;DHT22;8462;53.156;8.220;2022-09-09T05:34:14;17.30;86.50
7658;DHT22;8462;53.156;8.220;2022-09-09T05:36:41;17.50;84.40
7658;DHT22;8462;53.156;8.220;2022-09-09T05:39:10;17.60;84.20
7658;DHT22;8462;53.156;8.220;2022-09-09T05:41:46;17.70;83.30
7658;DHT22;8462;53.156;8.220;2022-09-09T05:44:14;17.80;83.00
7658;DHT22;8462;53.156;8.220;2022-09-09T05:46:40;17.90;82.80
7658;DHT22;8462;53.156;8.220;2022-09-09T05:49:08;17.90;82.90
7658;DHT22;8462;53.156;8.220;2022-09-09T05:51:35;18.10;82.20
7658;DHT22;8462;53.156;8.220;2022-09-09T05:54:07;18.20;80.90
7658;DHT22;8462;53.156;8.220;2022-09-09T05:56:48;18.80;81.70
7658;DHT22;8462;53.156;8.220;2022-09-09T05:59:16;19.80;79.90
7658;DHT22;8462;53.156;8.220;2022-09-09T06:01:44;20.80;77.20
7658;DHT22;8462;53.156;8.220;2022-09-09T06:04:19;21.90;75.00
7658;DHT22;8462;53.156;8.220;2022-09-09T06:06:57;22.60;68.90
7658;DHT22;8462;53.156;8.220;2022-09-09T06:09:32;23.40;67.90
7658;DHT22;8462;53.156;8.220;2022-09-09T06:12:07;23.90;65.60
7658;DHT22;8462;53.156;8.220;2022-09-09T06:14:35;23.70;63.20
7658;DHT22;8462;53.156;8.220;2022-09-09T06:17:02;23.20;64.00
7658;DHT22;8462;53.156;8.220;2022-09-09T06:19:37;22.70;65.00
7658;DHT22;8462;53.156;8.220;2022-09-09T06:22:04;22.40;66.20
7658;DHT22;8462;53.156;8.220;2022-09-09T06:24:35;22.00;67.40
7658;DHT22;8462;53.156;8.220;2022-09-09T06:27:03;21.80;68.30
7658;DHT22;8462;53.156;8.220;2022-09-09T06:29:35;21.80;68.80
7658;DHT22;8462;53.156;8.220;2022-09-09T06:32:02;22.10;70.80
7658;DHT22;8462;53.156;8.220;2022-09-09T06:34:34;22.60;67.40
7658;DHT22;8462;53.156;8.220;2022-09-09T06:37:02;22.80;66.50
7658;DHT22;8462;53.156;8.220;2022-09-09T06:39:43;22.90;65.70
7658;DHT22;8462;53.156;8.220;2022-09-09T06:42:10;22.70;65.50
7658;DHT22;8462;53.156;8.220;2022-09-09T06:44:50;22.40;66.20
7658;DHT22;8462;53.156;8.220;2022-09-09T06:47:32;22.00;67.00
7658;DHT22;8462;53.156;8.220;2022-09-09T06:49:59;21.50;68.70
7658;DHT22;8462;53.156;8.220;2022-09-09T06:52:26;21.20;70.50
7658;DHT22;8462;53.156;8.220;2022-09-09T06:54:56;21.00;71.70
7658;DHT22;8462;53.156;8.220;2022-09-09T06:57:30;20.80;72.10
7658;DHT22;8462;53.156;8.220;2022-09-09T07:00:04;20.70;72.80
7658;DHT22;8462;53.156;8.220;2022-09-09T07:02:35;20.70;73.10
7658;DHT22;8462;53.156;8.220;2022-09-09T07:05:06;20.70;73.60
7658;DHT22;8462;53.156;8.220;2022-09-09T07:07:35;20.80;73.40
7658;DHT22;8462;53.156;8.220;2022-09-09T07:10:04;20.90;74.10
7658;DHT22;8462;53.156;8.220;2022-09-09T07:13:05;21.50;74.40
7658;DHT22;8462;53.156;8.220;2022-09-09T07:15:45;22.70;71.80
7658;DHT22;8462;53.156;8.220;2022-09-09T07:18:17;23.70;67.30
7658;DHT22;8462;53.156;8.220;2022-09-09T07:21:12;24.10;63.90
7658;DHT22;8462;53.156;8.220;2022-09-09T07:24:35;24.80;63.40
7658;DHT22;8462;53.156;8.220;2022-09-09T07:27:05;25.40;60.90
7658;DHT22;8462;53.156;8.220;2022-09-09T07:29:37;25.70;59.20
7658;DHT22;8462;53.156;8.220;2022-09-09T07:32:33;25.80;59.00
7658;DHT22;8462;53.156;8.220;2022-09-09T07:35:04;26.10;58.20
7658;DHT22;8462;53.156;8.220;2022-09-09T07:37:42;26.20;57.90
7658;DHT22;8462;53.156;8.220;2022-09-09T07:40:11;26.20;56.10
7658;DHT22;8462;53.156;8.220;2022-09-09T07:43:03;25.90;57.80
7658;DHT22;8462;53.156;8.220;2022-09-09T07:45:57;25.70;58.40
7658;DHT22;8462;53.156;8.220;2022-09-09T07:49:03;25.20;59.10
7658;DHT22;8462;53.156;8.220;2022-09-09T07:52:01;24.50;60.80
7658;DHT22;8462;53.156;8.220;2022-09-09T07:54:30;24.30;62.30
7658;DHT22;8462;53.156;8.220;2022-09-09T07:57:08;24.20;62.60
7658;DHT22;8462;53.156;8.220;2022-09-09T07:59:36;24.20;62.80
7658;DHT22;8462;53.156;8.220;2022-09-09T08:02:05;24.00;63.00
7658;DHT22;8462;53.156;8.220;2022-09-09T08:04:37;23.70;63.60
7658;DHT22;8462;53.156;8.220;2022-09-09T08:07:04;23.50;64.10
7658;DHT22;8462;53.156;8.220;2022-09-09T08:09:50;23.20;64.90
7658;DHT22;8462;53.156;8.220;2022-09-09T08:12:24;23.30;65.50
7658;DHT22;8462;53.156;8.220;2022-09-09T08:14:51;23.30;65.50
7658;DHT22;8462;53.156;8.220;2022-09-09T08:17:23;23.40;65.60
7658;DHT22;8462;53.156;8.220;2022-09-09T08:19:53;23.40;65.20
7658;DHT22;8462;53.156;8.220;2022-09-09T08:22:24;23.30;65.10
7658;DHT22;8462;53.156;8.220;2022-09-09T08:24:55;23.30;65.40
7658;DHT22;8462;53.156;8.220;2022-09-09T08:27:26;23.40;65.40
7658;DHT22;8462;53.156;8.220;2022-09-09T08:29:54;23.40;65.50
7658;DHT22;8462;53.156;8.220;2022-09-09T08:32:22;23.40;65.40
7658;DHT22;8462;53.156;8.220;2022-09-09T08:34:49;23.50;65.30
7658;DHT22;8462;53.156;8.220;2022-09-09T08:37:21;23.50;64.90
7658;DHT22;8462;53.156;8.220;2022-09-09T08:39:48;23.40;65.20
7658;DHT22;8462;53.156;8.220;2022-09-09T08:42:35;23.40;65.20
7658;DHT22;8462;53.156;8.220;2022-09-09T08:45:18;23.40;65.10
7658;DHT22;8462;53.156;8.220;2022-09-09T08:47:54;23.50;66.00
7658;DHT22;8462;53.156;8.220;2022-09-09T08:50:25;23.80;64.90
7658;DHT22;8462;53.156;8.220;2022-09-09T08:53:03;24.00;63.40
7658;DHT22;8462;53.156;8.220;2022-09-09T08:55:38;24.20;63.40
7658;DHT22;8462;53.156;8.220;2022-09-09T08:58:20;24.40;62.10
7658;DHT22;8462;53.156;8.220;2022-09-09T09:01:14;24.60;61.90
7658;DHT22;8462;53.156;8.220;2022-09-09T09:03:53;24.90;61.40
7658;DHT22;8462;53.156;8.220;2022-09-09T09:06:34;25.00;60.40
7658;DHT22;8462;53.156;8.220;2022-09-09T09:09:11;24.80;59.90
7658;DHT22;8462;53.156;8.220;2022-09-09T09:11:43;24.40;59.80
7658;DHT22;8462;53.156;8.220;2022-09-09T09:14:16;24.10;60.90
7658;DHT22;8462;53.156;8.220;2022-09-09T09:16:51;23.80;61.70
7658;DHT22;8462;53.156;8.220;2022-09-09T09:19:20;23.70;62.30
7658;DHT22;8462;53.156;8.220;2022-09-09T09:21:53;23.60;62.10
7658;DHT22;8462;53.156;8.220;2022-09-09T09:24:26;23.60;62.50
7658;DHT22;8462;53.156;8.220;2022-09-09T09:26:56;23.50;62.90
7658;DHT22;8462;53.156;8.220;2022-09-09T09:29:26;23.60;63.20
7658;DHT22;8462;53.156;8.220;2022-09-09T09:31:56;23.70;63.30
7658;DHT22;8462;53.156;8.220;2022-09-09T09:34:56;24.10;62.60
7658;DHT22;8462;53.156;8.220;2022-09-09T09:37:27;24.30;61.20
7658;DHT22;8462;53.156;8.220;2022-09-09T09:40:08;24.40;60.80
7658;DHT22;8462;53.156;8.220;2022-09-09T09:42:36;24.40;60.90
7658;DHT22;8462;53.156;8.220;2022-09-09T09:45:08;24.40;61.30
7658;DHT22;8462;53.156;8.220;2022-09-09T09:47:42;24.60;60.50
7658;DHT22;8462;53.156;8.220;2022-09-09T09:50:19;24.60;60.00
7658;DHT22;8462;53.156;8.220;2022-09-09T09:52:54;24.80;60.30
7658;DHT22;8462;53.156;8.220;2022-09-09T09:55:25;25.00;58.80
7658;DHT22;8462;53.156;8.220;2022-09-09T09:57:53;25.00;58.60
7658;DHT22;8462;53.156;8.220;2022-09-09T10:00:22;25.00;58.90
7658;DHT22;8462;53.156;8.220;2022-09-09T10:03:01;25.00;58.70
7658;DHT22;8462;53.156;8.220;2022-09-09T10:05:35;24.80;59.40
7658;DHT22;8462;53.156;8.220;2022-09-09T10:08:11;24.90;58.80
7658;DHT22;8462;53.156;8.220;2022-09-09T10:10:59;24.90;58.70
7658;DHT22;8462;53.156;8.220;2022-09-09T10:13:35;25.00;58.90
7658;DHT22;8462;53.156;8.220;2022-09-09T10:16:17;25.20;59.10
7658;DHT22;8462;53.156;8.220;2022-09-09T10:18:58;25.40;58.70
7658;DHT22;8462;53.156;8.220;2022-09-09T10:24:39;25.70;57.10
7658;DHT22;8462;53.156;8.220;2022-09-09T10:27:19;25.70;57.00
7658;DHT22;8462;53.156;8.220;2022-09-09T10:30:09;25.70;57.80
7658;DHT22;8462;53.156;8.220;2022-09-09T10:32:41;25.80;57.80
7658;DHT22;8462;53.156;8.220;2022-09-09T10:35:17;25.90;57.20
7658;DHT22;8462;53.156;8.220;2022-09-09T10:38:15;25.80;56.60
7658;DHT22;8462;53.156;8.220;2022-09-09T10:40:50;25.90;55.60
7658;DHT22;8462;53.156;8.220;2022-09-09T10:43:46;25.90;56.50
7658;DHT22;8462;53.156;8.220;2022-09-09T10:46:25;26.10;56.10
7658;DHT22;8462;53.156;8.220;2022-09-09T10:49:05;26.20;55.60
7658;DHT22;8462;53.156;8.220;2022-09-09T10:51:40;26.20;55.40
7658;DHT22;8462;53.156;8.220;2022-09-09T10:54:30;26.00;56.40
7658;DHT22;8462;53.156;8.220;2022-09-09T10:57:03;25.90;56.10
7658;DHT22;8462;53.156;8.220;2022-09-09T10:59:36;25.80;56.80
7658;DHT22;8462;53.156;8.220;2022-09-09T11:02:12;25.70;57.10
7658;DHT22;8462;53.156;8.220;2022-09-09T11:04:44;25.70;57.10
7658;DHT22;8462;53.156;8.220;2022-09-09T11:07:14;25.80;56.20
7658;DHT22;8462;53.156;8.220;2022-09-09T11:09:50;25.90;56.00
7658;DHT22;8462;53.156;8.220;2022-09-09T11:12:21;25.90;55.70
7658;DHT22;8462;53.156;8.220;2022-09-09T11:14:57;25.80;55.80
7658;DHT22;8462;53.156;8.220;2022-09-09T11:17:33;25.90;56.10
7658;DHT22;8462;53.156;8.220;2022-09-09T11:20:02;25.90;55.90
7658;DHT22;8462;53.156;8.220;2022-09-09T11:22:35;25.90;55.70
7658;DHT22;8462;53.156;8.220;2022-09-09T11:25:10;25.90;55.80
7658;DHT22;8462;53.156;8.220;2022-09-09T11:27:49;25.90;56.20
7658;DHT22;8462;53.156;8.220;2022-09-09T11:30:22;25.90;56.60
7658;DHT22;8462;53.156;8.220;2022-09-09T11:33:07;25.90;57.10
7658;DHT22;8462;53.156;8.220;2022-09-09T11:35:47;26.00;56.30
7658;DHT22;8462;53.156;8.220;2022-09-09T11:38:26;26.10;55.60
7658;DHT22;8462;53.156;8.220;2022-09-09T11:40:59;26.10;56.00
7658;DHT22;8462;53.156;8.220;2022-09-09T11:43:29;26.10;55.60
7658;DHT22;8462;53.156;8.220;2022-09-09T11:46:00;25.90;55.80
7658;DHT22;8462;53.156;8.220;2022-09-09T11:48:35;25.70;56.10
7658;DHT22;8462;53.156;8.220;2022-09-09T11:51:05;25.50;56.70
7658;DHT22;8462;53.156;8.220;2022-09-09T11:53:34;25.40;57.50
7658;DHT22;8462;53.156;8.220;2022-09-09T11:56:07;25.20;57.90
7658;DHT22;8462;53.156;8.220;2022-09-09T11:58:41;25.00;58.50
7658;DHT22;8462;53.156;8.220;2022-09-09T12:01:30;25.00;58.50
7658;DHT22;8462;53.156;8.220;2022-09-09T12:04:22;25.00;60.50
7658;DHT22;8462;53.156;8.220;2022-09-09T12:06:57;25.00;62.40
7658;DHT22;8462;53.156;8.220;2022-09-09T12:09:44;24.90;65.80
7658;DHT22;8462;53.156;8.220;2022-09-09T12:12:28;24.90;66.70
7658;DHT22;8462;53.156;8.220;2022-09-09T12:17:46;25.20;64.00
7658;DHT22;8462;53.156;8.220;2022-09-09T12:20:16;25.30;65.30
7658;DHT22;8462;53.156;8.220;2022-09-09T12:22:51;25.40;65.00
7658;DHT22;8462;53.156;8.220;2022-09-09T12:25:29;25.40;62.70
7658;DHT22;8462;53.156;8.220;2022-09-09T12:28:05;25.40;62.40
7658;DHT22;8462;53.156;8.220;2022-09-09T12:30:42;25.30;61.40
7658;DHT22;8462;53.156;8.220;2022-09-09T12:33:16;25.20;61.70
7658;DHT22;8462;53.156;8.220;2022-09-09T12:35:44;25.00;61.80
7658;DHT22;8462;53.156;8.220;2022-09-09T12:38:17;24.90;62.60
7658;DHT22;8462;53.156;8.220;2022-09-09T12:40:54;24.90;61.70
7658;DHT22;8462;53.156;8.220;2022-09-09T12:43:23;24.90;61.80
7658;DHT22;8462;53.156;8.220;2022-09-09T12:45:52;24.80;61.50
7658;DHT22;8462;53.156;8.220;2022-09-09T12:48:29;24.70;61.40
7658;DHT22;8462;53.156;8.220;2022-09-09T12:50:58;24.70;61.70
7658;DHT22;8462;53.156;8.220;2022-09-09T12:53:29;24.70;62.30
7658;DHT22;8462;53.156;8.220;2022-09-09T12:55:59;24.60;62.20
7658;DHT22;8462;53.156;8.220;2022-09-09T12:58:26;24.60;62.20
7658;DHT22;8462;53.156;8.220;2022-09-09T13:01:01;24.50;62.40
7658;DHT22;8462;53.156;8.220;2022-09-09T13:03:33;24.40;62.00
7658;DHT22;8462;53.156;8.220;2022-09-09T13:06:27;24.30;60.80
7658;DHT22;8462;53.156;8.220;2022-09-09T13:09:03;24.10;61.50
7658;DHT22;8462;53.156;8.220;2022-09-09T13:11:34;24.00;61.40
7658;DHT22;8462;53.156;8.220;2022-09-09T13:14:04;23.90;62.80
7658;DHT22;8462;53.156;8.220;2022-09-09T13:16:39;23.90;64.00
7658;DHT22;8462;53.156;8.220;2022-09-09T13:19:16;23.80;63.60
7658;DHT22;8462;53.156;8.220;2022-09-09T13:21:50;23.80;63.10
7658;DHT22;8462;53.156;8.220;2022-09-09T13:24:30;23.70;63.70
7658;DHT22;8462;53.156;8.220;2022-09-09T13:26:59;23.60;64.00
7658;DHT22;8462;53.156;8.220;2022-09-09T13:29:28;23.60;64.30
7658;DHT22;8462;53.156;8.220;2022-09-09T13:32:03;23.40;64.60
7658;DHT22;8462;53.156;8.220;2022-09-09T13:34:34;23.30;65.20
7658;DHT22;8462;53.156;8.220;2022-09-09T13:37:03;23.30;65.70
7658;DHT22;8462;53.156;8.220;2022-09-09T13:39:50;23.20;66.10
7658;DHT22;8462;53.156;8.220;2022-09-09T13:42:28;23.00;66.20
7658;DHT22;8462;53.156;8.220;2022-09-09T13:44:59;23.00;66.60
7658;DHT22;8462;53.156;8.220;2022-09-09T13:47:32;22.90;66.90
7658;DHT22;8462;53.156;8.220;2022-09-09T13:50:20;22.90;67.30
7658;DHT22;8462;53.156;8.220;2022-09-09T13:52:48;22.80;67.40
7658;DHT22;8462;53.156;8.220;2022-09-09T13:55:17;22.80;66.90
7658;DHT22;8462;53.156;8.220;2022-09-09T13:57:51;22.70;67.30
7658;DHT22;8462;53.156;8.220;2022-09-09T14:00:22;22.70;67.00
7658;DHT22;8462;53.156;8.220;2022-09-09T14:02:50;22.50;66.80
7658;DHT22;8462;53.156;8.220;2022-09-09T14:05:19;22.50;66.50
7658;DHT22;8462;53.156;8.220;2022-09-09T14:07:48;22.50;66.40
7658;DHT22;8462;53.156;8.220;2022-09-09T14:10:16;22.50;65.70
7658;DHT22;8462;53.156;8.220;2022-09-09T14:12:42;22.50;65.40
7658;DHT22;8462;53.156;8.220;2022-09-09T14:15:11;22.40;64.30
7658;DHT22;8462;53.156;8.220;2022-09-09T14:17:42;22.30;63.70
7658;DHT22;8462;53.156;8.220;2022-09-09T14:20:10;22.30;64.00
7658;DHT22;8462;53.156;8.220;2022-09-09T14:22:42;22.30;64.10
7658;DHT22;8462;53.156;8.220;2022-09-09T14:25:18;22.30;63.30
7658;DHT22;8462;53.156;8.220;2022-09-09T14:27:45;22.40;63.00
7658;DHT22;8462;53.156;8.220;2022-09-09T14:30:12;22.40;63.10
7658;DHT22;8462;53.156;8.220;2022-09-09T14:32:49;22.50;63.40
7658;DHT22;8462;53.156;8.220;2022-09-09T14:35:16;22.40;64.00
7658;DHT22;8462;53.156;8.220;2022-09-09T14:37:45;22.50;63.70
7658;DHT22;8462;53.156;8.220;2022-09-09T14:40:12;22.40;64.20
7658;DHT22;8462;53.156;8.220;2022-09-09T14:42:47;22.40;64.40
7658;DHT22;8462;53.156;8.220;2022-09-09T14:45:14;22.40;64.40
7658;DHT22;8462;53.156;8.220;2022-09-09T14:47:41;22.30;64.80
7658;DHT22;8462;53.156;8.220;2022-09-09T14:50:08;22.30;64.90
7658;DHT22;8462;53.156;8.220;2022-09-09T14:52:35;22.40;65.00
7658;DHT22;8462;53.156;8.220;2022-09-09T14:55:13;22.30;64.90
7658;DHT22;8462;53.156;8.220;2022-09-09T14:57:40;22.20;64.70
7658;DHT22;8462;53.156;8.220;2022-09-09T15:00:09;22.20;65.10
7658;DHT22;8462;53.156;8.220;2022-09-09T15:02:45;22.10;66.20
7658;DHT22;8462;53.156;8.220;2022-09-09T15:05:12;22.10;65.60
7658;DHT22;8462;53.156;8.220;2022-09-09T15:07:39;22.00;66.20
7658;DHT22;8462;53.156;8.220;2022-09-09T15:10:06;22.00;66.50
7658;DHT22;8462;53.156;8.220;2022-09-09T15:12:34;22.00;66.50
7658;DHT22;8462;53.156;8.220;2022-09-09T15:15:03;22.00;66.20
7658;DHT22;8462;53.156;8.220;2022-09-09T15:17:29;22.00;66.00
7658;DHT22;8462;53.156;8.220;2022-09-09T15:20:03;22.00;65.20
7658;DHT22;8462;53.156;8.220;2022-09-09T15:22:38;21.90;65.30
7658;DHT22;8462;53.156;8.220;2022-09-09T15:25:06;21.90;65.40
7658;DHT22;8462;53.156;8.220;2022-09-09T15:27:42;21.90;65.30
7658;DHT22;8462;53.156;8.220;2022-09-09T15:30:11;21.90;65.20
7658;DHT22;8462;53.156;8.220;2022-09-09T15:32:38;21.90;64.90
7658;DHT22;8462;53.156;8.220;2022-09-09T15:35:06;21.90;64.80
7658;DHT22;8462;53.156;8.220;2022-09-09T15:37:33;22.00;65.10
7658;DHT22;8462;53.156;8.220;2022-09-09T15:40:03;22.00;64.50
7658;DHT22;8462;53.156;8.220;2022-09-09T15:42:30;21.90;64.90
7658;DHT22;8462;53.156;8.220;2022-09-09T15:44:58;21.90;65.70
7658;DHT22;8462;53.156;8.220;2022-09-09T15:47:26;21.70;66.40
7658;DHT22;8462;53.156;8.220;2022-09-09T15:49:55;21.70;67.00
7658;DHT22;8462;53.156;8.220;2022-09-09T15:52:22;21.70;67.60
7658;DHT22;8462;53.156;8.220;2022-09-09T15:54:49;21.70;67.30
7658;DHT22;8462;53.156;8.220;2022-09-09T15:57:17;21.80;67.40
7658;DHT22;8462;53.156;8.220;2022-09-09T15:59:44;21.80;67.10
7658;DHT22;8462;53.156;8.220;2022-09-09T16:02:13;21.80;66.50
7658;DHT22;8462;53.156;8.220;2022-09-09T16:04:47;21.80;66.40
7658;DHT22;8462;53.156;8.220;2022-09-09T16:07:14;21.80;66.80
7658;DHT22;8462;53.156;8.220;2022-09-09T16:09:41;21.80;67.30
7658;DHT22;8462;53.156;8.220;2022-09-09T16:12:17;21.80;67.20
7658;DHT22;8462;53.156;8.220;2022-09-09T16:14:44;21.80;67.00
7658;DHT22;8462;53.156;8.220;2022-09-09T16:17:12;21.90;66.60
7658;DHT22;8462;53.156;8.220;2022-09-09T16:19:46;21.90;66.80
7658;DHT22;8462;53.156;8.220;2022-09-09T16:22:13;21.90;66.80
7658;DHT22;8462;53.156;8.220;2022-09-09T16:24:41;21.90;66.50
7658;DHT22;8462;53.156;8.220;2022-09-09T16:27:08;21.90;66.20
7658;DHT22;8462;53.156;8.220;2022-09-09T16:29:35;21.80;66.00
7658;DHT22;8462;53.156;8.220;2022-09-09T16:32:04;21.70;66.60
7658;DHT22;8462;53.156;8.220;2022-09-09T16:34:37;21.70;67.00
7658;DHT22;8462;53.156;8.220;2022-09-09T16:37:07;21.70;67.80
7658;DHT22;8462;53.156;8.220;2022-09-09T16:39:38;21.70;67.90
7658;DHT22;8462;53.156;8.220;2022-09-09T16:42:07;21.60;68.60
7658;DHT22;8462;53.156;8.220;2022-09-09T16:44:35;21.60;69.10
7658;DHT22;8462;53.156;8.220;2022-09-09T16:47:02;21.60;69.60
7658;DHT22;8462;53.156;8.220;2022-09-09T16:49:29;21.50;70.10
7658;DHT22;8462;53.156;8.220;2022-09-09T16:52:01;21.40;70.50
7658;DHT22;8462;53.156;8.220;2022-09-09T16:54:28;21.40;70.60
7658;DHT22;8462;53.156;8.220;2022-09-09T16:56:55;21.30;70.70
7658;DHT22;8462;53.156;8.220;2022-09-09T16:59:23;21.20;71.30